sensor_id;sensor_type;location;lat;lon;timestamp;P1;durP1;ratioP1;P2;durP2;ratioP2
4812;SDS011;2420;51.202;8.698;2023-02-28T00:00:15;7.18;;;2.53;;
4812;SDS011;2420;51.202;8.698;2023-02-28T00:02:41;3.60;;;2.60;;
4812;SDS011;2420;51.202;8.698;2023-02-28T00:05:08;3.85;;;2.60;;
4812;SDS011;2420;51.202;8.698;2023-02-28T00:07:35;2.75;;;2.30;;
4812;SDS011;2420;51.202;8.698;2023-02-28T00:10:01;5.45;;;2.75;;
4812;SDS011;2420;51.202;8.698;2023-02-28T00:12:28;3.08;;;2.40;;
4812;SDS011;2420;51.202;8.698;2023-02-28T00:14:54;3.35;;;2.60;;
4812;SDS011;2420;51.202;8.698;2023-02-28T00:17:19;3.40;;;2.35;;
4812;SDS011;2420;51.202;8.698;2023-02-28T00:19:46;3.40;;;2.50;;
4812;SDS011;2420;51.202;8.698;2023-02-28T00:22:16;3.25;;;2.47;;
4812;SDS011;2420;51.202;8.698;2023-02-28T00:24:42;3.67;;;2.50;;
4812;SDS011;2420;51.202;8.698;2023-02-28T00:27:07;4.07;;;2.50;;
4812;SDS011;2420;51.202;8.698;2023-02-28T00:29:33;3.15;;;2.53;;
4812;SDS011;2420;51.202;8.698;2023-02-28T00:31:58;4.53;;;2.70;;
4812;SDS011;2420;51.202;8.698;2023-02-28T00:34:24;2.55;;;2.25;;
4812;SDS011;2420;51.202;8.698;2023-02-28T00:36:50;3.42;;;2.50;;
4812;SDS011;2420;51.202;8.698;2023-02-28T00:39:15;3.58;;;2.40;;
4812;SDS011;2420;51.202;8.698;2023-02-28T00:41:41;3.13;;;2.15;;
4812;SDS011;2420;51.202;8.698;2023-02-28T00:44:07;3.90;;;2.03;;
4812;SDS011;2420;51.202;8.698;2023-02-28T00:46:32;2.80;;;2.10;;
4812;SDS011;2420;51.202;8.698;2023-02-28T00:48:58;3.45;;;2.20;;
4812;SDS011;2420;51.202;8.698;2023-02-28T00:51:24;2.60;;;2.25;;
4812;SDS011;2420;51.202;8.698;2023-02-28T00:53:49;3.47;;;2.40;;
4812;SDS011;2420;51.202;8.698;2023-02-28T00:56:15;2.92;;;2.30;;
4812;SDS011;2420;51.202;8.698;2023-02-28T00:58:40;3.42;;;2.40;;
4812;SDS011;2420;51.202;8.698;2023-02-28T01:01:06;5.20;;;2.20;;
4812;SDS011;2420;51.202;8.698;2023-02-28T01:03:32;4.35;;;2.40;;
4812;SDS011;2420;51.202;8.698;2023-02-28T01:05:58;4.25;;;2.33;;
4812;SDS011;2420;51.202;8.698;2023-02-28T01:08:24;2.20;;;2.00;;
4812;SDS011;2420;51.202;8.698;2023-02-28T01:10:50;5.10;;;2.40;;
4812;SDS011;2420;51.202;8.698;2023-02-28T01:13:16;4.03;;;2.58;;
4812;SDS011;2420;51.202;8.698;2023-02-28T01:15:44;4.57;;;2.20;;
4812;SDS011;2420;51.202;8.698;2023-02-28T01:18:16;2.65;;;2.15;;
4812;SDS011;2420;51.202;8.698;2023-02-28T01:20:41;3.17;;;2.25;;
4812;SDS011;2420;51.202;8.698;2023-02-28T01:23:07;4.13;;;2.33;;
4812;SDS011;2420;51.202;8.698;2023-02-28T01:25:34;4.18;;;2.50;;
4812;SDS011;2420;51.202;8.698;2023-02-28T01:28:00;2.63;;;2.03;;
4812;SDS011;2420;51.202;8.698;2023-02-28T01:30:26;3.00;;;2.40;;
4812;SDS011;2420;51.202;8.698;2023-02-28T01:32:51;3.10;;;2.20;;
4812;SDS011;2420;51.202;8.698;2023-02-28T01:35:19;2.78;;;2.20;;
4812;SDS011;2420;51.202;8.698;2023-02-28T01:37:45;5.03;;;2.50;;
4812;SDS011;2420;51.202;8.698;2023-02-28T01:40:11;4.07;;;2.40;;
4812;SDS011;2420;51.202;8.698;2023-02-28T01:42:37;3.90;;;2.75;;
4812;SDS011;2420;51.202;8.698;2023-02-28T01:45:14;3.55;;;2.55;;
4812;SDS011;2420;51.202;8.698;2023-02-28T01:47:50;2.97;;;2.45;;
4812;SDS011;2420;51.202;8.698;2023-02-28T01:50:23;4.13;;;2.60;;
4812;SDS011;2420;51.202;8.698;2023-02-28T01:52:51;3.58;;;2.40;;
4812;SDS011;2420;51.202;8.698;2023-02-28T01:55:21;3.00;;;2.30;;
4812;SDS011;2420;51.202;8.698;2023-02-28T01:57:50;4.97;;;2.60;;
4812;SDS011;2420;51.202;8.698;2023-02-28T02:00:18;4.13;;;2.60;;
4812;SDS011;2420;51.202;8.698;2023-02-28T02:02:48;3.53;;;2.55;;
4812;SDS011;2420;51.202;8.698;2023-02-28T02:05:19;3.72;;;2.38;;
4812;SDS011;2420;51.202;8.698;2023-02-28T02:07:48;3.83;;;2.50;;
4812;SDS011;2420;51.202;8.698;2023-02-28T02:10:21;3.28;;;2.45;;
4812;SDS011;2420;51.202;8.698;2023-02-28T02:15:31;4.25;;;2.13;;
4812;SDS011;2420;51.202;8.698;2023-02-28T02:26:40;3.25;;;2.45;;
4812;SDS011;2420;51.202;8.698;2023-02-28T02:35:15;3.35;;;2.53;;
4812;SDS011;2420;51.202;8.698;2023-02-28T02:37:52;3.70;;;2.40;;
4812;SDS011;2420;51.202;8.698;2023-02-28T02:40:38;3.35;;;2.58;;
4812;SDS011;2420;51.202;8.698;2023-02-28T02:43:13;3.08;;;2.40;;
4812;SDS011;2420;51.202;8.698;2023-02-28T02:45:59;3.53;;;2.40;;
4812;SDS011;2420;51.202;8.698;2023-02-28T02:48:34;2.72;;;2.30;;
4812;SDS011;2420;51.202;8.698;2023-02-28T02:51:04;3.25;;;2.45;;
4812;SDS011;2420;51.202;8.698;2023-02-28T02:53:38;3.00;;;2.60;;
4812;SDS011;2420;51.202;8.698;2023-02-28T02:56:10;4.05;;;2.97;;
4812;SDS011;2420;51.202;8.698;2023-02-28T02:58:40;3.85;;;2.47;;
4812;SDS011;2420;51.202;8.698;2023-02-28T03:01:08;4.85;;;2.53;;
4812;SDS011;2420;51.202;8.698;2023-02-28T03:03:37;3.88;;;2.70;;
4812;SDS011;2420;51.202;8.698;2023-02-28T03:06:03;4.97;;;2.95;;
4812;SDS011;2420;51.202;8.698;2023-02-28T03:08:33;3.85;;;2.80;;
4812;SDS011;2420;51.202;8.698;2023-02-28T03:11:02;3.53;;;2.70;;
4812;SDS011;2420;51.202;8.698;2023-02-28T03:16:19;4.00;;;2.88;;
4812;SDS011;2420;51.202;8.698;2023-02-28T03:24:43;3.67;;;2.50;;
4812;SDS011;2420;51.202;8.698;2023-02-28T03:27:41;4.55;;;2.67;;
4812;SDS011;2420;51.202;8.698;2023-02-28T03:30:27;3.53;;;2.63;;
4812;SDS011;2420;51.202;8.698;2023-02-28T03:33:03;7.25;;;2.80;;
4812;SDS011;2420;51.202;8.698;2023-02-28T03:35:38;4.07;;;2.50;;
4812;SDS011;2420;51.202;8.698;2023-02-28T03:38:29;4.80;;;2.58;;
4812;SDS011;2420;51.202;8.698;2023-02-28T03:43:45;3.95;;;2.53;;
4812;SDS011;2420;51.202;8.698;2023-02-28T03:46:18;3.15;;;2.53;;
4812;SDS011;2420;51.202;8.698;2023-02-28T03:48:49;3.75;;;2.63;;
4812;SDS011;2420;51.202;8.698;2023-02-28T03:51:20;3.58;;;2.47;;
4812;SDS011;2420;51.202;8.698;2023-02-28T03:54:08;2.90;;;2.50;;
4812;SDS011;2420;51.202;8.698;2023-02-28T03:56:38;2.78;;;2.28;;
4812;SDS011;2420;51.202;8.698;2023-02-28T03:59:28;3.15;;;2.40;;
4812;SDS011;2420;51.202;8.698;2023-02-28T04:01:59;4.53;;;2.22;;
4812;SDS011;2420;51.202;8.698;2023-02-28T04:04:25;2.42;;;2.17;;
4812;SDS011;2420;51.202;8.698;2023-02-28T04:06:52;5.25;;;2.45;;
4812;SDS011;2420;51.202;8.698;2023-02-28T04:09:27;3.83;;;2.30;;
4812;SDS011;2420;51.202;8.698;2023-02-28T04:11:52;2.70;;;2.17;;
4812;SDS011;2420;51.202;8.698;2023-02-28T04:14:18;2.63;;;1.95;;
4812;SDS011;2420;51.202;8.698;2023-02-28T04:16:44;4.00;;;2.40;;
4812;SDS011;2420;51.202;8.698;2023-02-28T04:19:10;4.97;;;2.50;;
4812;SDS011;2420;51.202;8.698;2023-02-28T04:21:40;3.03;;;2.20;;
4812;SDS011;2420;51.202;8.698;2023-02-28T04:24:08;2.58;;;2.10;;
4812;SDS011;2420;51.202;8.698;2023-02-28T04:26:39;3.60;;;2.40;;
4812;SDS011;2420;51.202;8.698;2023-02-28T04:29:06;5.10;;;2.33;;
4812;SDS011;2420;51.202;8.698;2023-02-28T04:31:32;3.35;;;2.25;;
4812;SDS011;2420;51.202;8.698;2023-02-28T04:33:58;4.55;;;2.35;;
4812;SDS011;2420;51.202;8.698;2023-02-28T04:36:24;3.70;;;2.40;;
4812;SDS011;2420;51.202;8.698;2023-02-28T04:38:50;3.10;;;2.40;;
4812;SDS011;2420;51.202;8.698;2023-02-28T04:41:16;3.38;;;2.42;;
4812;SDS011;2420;51.202;8.698;2023-02-28T04:43:42;2.67;;;2.20;;
4812;SDS011;2420;51.202;8.698;2023-02-28T04:46:07;2.88;;;2.25;;
4812;SDS011;2420;51.202;8.698;2023-02-28T04:48:34;3.92;;;2.25;;
4812;SDS011;2420;51.202;8.698;2023-02-28T04:51:05;2.78;;;2.20;;
4812;SDS011;2420;51.202;8.698;2023-02-28T04:53:36;3.97;;;2.33;;
4812;SDS011;2420;51.202;8.698;2023-02-28T04:56:02;3.40;;;2.10;;
4812;SDS011;2420;51.202;8.698;2023-02-28T04:58:29;3.72;;;2.38;;
4812;SDS011;2420;51.202;8.698;2023-02-28T05:01:00;3.70;;;2.53;;
4812;SDS011;2420;51.202;8.698;2023-02-28T05:03:37;4.85;;;2.50;;
4812;SDS011;2420;51.202;8.698;2023-02-28T05:06:05;5.97;;;2.63;;
4812;SDS011;2420;51.202;8.698;2023-02-28T05:08:31;5.45;;;2.58;;
4812;SDS011;2420;51.202;8.698;2023-02-28T05:10:56;3.30;;;2.30;;
4812;SDS011;2420;51.202;8.698;2023-02-28T05:13:22;2.97;;;2.28;;
4812;SDS011;2420;51.202;8.698;2023-02-28T05:15:47;5.43;;;2.72;;
4812;SDS011;2420;51.202;8.698;2023-02-28T05:18:13;3.22;;;2.65;;
4812;SDS011;2420;51.202;8.698;2023-02-28T05:20:39;6.38;;;2.88;;
4812;SDS011;2420;51.202;8.698;2023-02-28T05:23:04;6.07;;;2.83;;
4812;SDS011;2420;51.202;8.698;2023-02-28T05:25:30;3.00;;;2.30;;
4812;SDS011;2420;51.202;8.698;2023-02-28T05:27:55;3.75;;;2.42;;
4812;SDS011;2420;51.202;8.698;2023-02-28T05:30:21;5.68;;;3.33;;
4812;SDS011;2420;51.202;8.698;2023-02-28T05:32:49;6.28;;;3.80;;
4812;SDS011;2420;51.202;8.698;2023-02-28T05:35:15;3.72;;;2.53;;
4812;SDS011;2420;51.202;8.698;2023-02-28T05:37:41;4.70;;;2.80;;
4812;SDS011;2420;51.202;8.698;2023-02-28T05:40:07;4.78;;;2.67;;
4812;SDS011;2420;51.202;8.698;2023-02-28T05:42:36;3.72;;;2.38;;
4812;SDS011;2420;51.202;8.698;2023-02-28T05:45:02;3.45;;;2.30;;
4812;SDS011;2420;51.202;8.698;2023-02-28T05:47:29;3.60;;;2.38;;
4812;SDS011;2420;51.202;8.698;2023-02-28T05:49:54;3.25;;;2.22;;
4812;SDS011;2420;51.202;8.698;2023-02-28T05:52:20;4.25;;;2.47;;
4812;SDS011;2420;51.202;8.698;2023-02-28T05:54:46;3.83;;;2.95;;
4812;SDS011;2420;51.202;8.698;2023-02-28T05:57:12;4.05;;;3.00;;
4812;SDS011;2420;51.202;8.698;2023-02-28T05:59:37;3.40;;;2.38;;
4812;SDS011;2420;51.202;8.698;2023-02-28T06:02:05;4.40;;;2.60;;
4812;SDS011;2420;51.202;8.698;2023-02-28T06:04:31;4.35;;;2.42;;
4812;SDS011;2420;51.202;8.698;2023-02-28T06:06:56;3.22;;;2.13;;
4812;SDS011;2420;51.202;8.698;2023-02-28T06:09:22;4.70;;;2.20;;
4812;SDS011;2420;51.202;8.698;2023-02-28T06:11:48;3.15;;;2.42;;
4812;SDS011;2420;51.202;8.698;2023-02-28T06:14:14;4.97;;;2.58;;
4812;SDS011;2420;51.202;8.698;2023-02-28T06:16:42;4.70;;;3.13;;
4812;SDS011;2420;51.202;8.698;2023-02-28T06:19:08;5.60;;;4.15;;
4812;SDS011;2420;51.202;8.698;2023-02-28T06:21:34;10.05;;;7.85;;
4812;SDS011;2420;51.202;8.698;2023-02-28T06:24:00;8.50;;;7.32;;
4812;SDS011;2420;51.202;8.698;2023-02-28T06:26:26;8.20;;;3.60;;
4812;SDS011;2420;51.202;8.698;2023-02-28T06:28:52;6.68;;;3.08;;
4812;SDS011;2420;51.202;8.698;2023-02-28T06:31:18;3.35;;;2.63;;
4812;SDS011;2420;51.202;8.698;2023-02-28T06:33:45;3.40;;;2.40;;
4812;SDS011;2420;51.202;8.698;2023-02-28T06:36:12;5.15;;;2.70;;
4812;SDS011;2420;51.202;8.698;2023-02-28T06:38:38;3.40;;;2.10;;
4812;SDS011;2420;51.202;8.698;2023-02-28T06:41:07;5.10;;;2.33;;
4812;SDS011;2420;51.202;8.698;2023-02-28T06:43:34;5.10;;;2.40;;
4812;SDS011;2420;51.202;8.698;2023-02-28T06:46:03;4.50;;;2.30;;
4812;SDS011;2420;51.202;8.698;2023-02-28T06:48:31;3.65;;;2.35;;
4812;SDS011;2420;51.202;8.698;2023-02-28T06:51:09;2.70;;;2.10;;
4812;SDS011;2420;51.202;8.698;2023-02-28T06:53:38;3.38;;;2.50;;
4812;SDS011;2420;51.202;8.698;2023-02-28T06:56:07;4.55;;;3.10;;
4812;SDS011;2420;51.202;8.698;2023-02-28T06:58:37;6.95;;;5.80;;
4812;SDS011;2420;51.202;8.698;2023-02-28T07:01:04;8.18;;;6.20;;
4812;SDS011;2420;51.202;8.698;2023-02-28T07:03:30;5.38;;;3.95;;
4812;SDS011;2420;51.202;8.698;2023-02-28T07:05:59;4.25;;;2.75;;
4812;SDS011;2420;51.202;8.698;2023-02-28T07:08:25;3.58;;;2.70;;
4812;SDS011;2420;51.202;8.698;2023-02-28T07:10:55;4.95;;;2.58;;
4812;SDS011;2420;51.202;8.698;2023-02-28T07:13:21;4.40;;;2.97;;
4812;SDS011;2420;51.202;8.698;2023-02-28T07:15:55;4.35;;;2.55;;
4812;SDS011;2420;51.202;8.698;2023-02-28T07:18:25;5.22;;;2.90;;
4812;SDS011;2420;51.202;8.698;2023-02-28T07:20:51;6.10;;;3.85;;
4812;SDS011;2420;51.202;8.698;2023-02-28T07:23:17;6.75;;;3.10;;
4812;SDS011;2420;51.202;8.698;2023-02-28T07:25:44;5.60;;;2.90;;
4812;SDS011;2420;51.202;8.698;2023-02-28T07:28:10;4.38;;;2.97;;
4812;SDS011;2420;51.202;8.698;2023-02-28T07:30:37;5.40;;;3.03;;
4812;SDS011;2420;51.202;8.698;2023-02-28T07:33:03;4.85;;;3.42;;
4812;SDS011;2420;51.202;8.698;2023-02-28T07:35:29;4.30;;;3.03;;
4812;SDS011;2420;51.202;8.698;2023-02-28T07:37:57;4.72;;;3.20;;
4812;SDS011;2420;51.202;8.698;2023-02-28T07:40:23;4.88;;;2.88;;
4812;SDS011;2420;51.202;8.698;2023-02-28T07:42:49;5.82;;;3.17;;
4812;SDS011;2420;51.202;8.698;2023-02-28T07:45:15;6.50;;;3.75;;
4812;SDS011;2420;51.202;8.698;2023-02-28T07:47:41;5.28;;;3.15;;
4812;SDS011;2420;51.202;8.698;2023-02-28T07:50:07;5.95;;;3.28;;
4812;SDS011;2420;51.202;8.698;2023-02-28T07:52:35;5.00;;;3.35;;
4812;SDS011;2420;51.202;8.698;2023-02-28T07:55:01;5.40;;;3.60;;
4812;SDS011;2420;51.202;8.698;2023-02-28T07:57:27;6.15;;;3.22;;
4812;SDS011;2420;51.202;8.698;2023-02-28T07:59:52;5.80;;;3.20;;
4812;SDS011;2420;51.202;8.698;2023-02-28T08:02:18;4.22;;;2.88;;
4812;SDS011;2420;51.202;8.698;2023-02-28T08:04:44;4.28;;;2.70;;
4812;SDS011;2420;51.202;8.698;2023-02-28T08:07:10;5.32;;;3.20;;
4812;SDS011;2420;51.202;8.698;2023-02-28T08:09:39;4.53;;;3.15;;
4812;SDS011;2420;51.202;8.698;2023-02-28T08:12:05;4.78;;;3.10;;
4812;SDS011;2420;51.202;8.698;2023-02-28T08:14:32;5.30;;;3.10;;
4812;SDS011;2420;51.202;8.698;2023-02-28T08:16:57;3.70;;;2.63;;
4812;SDS011;2420;51.202;8.698;2023-02-28T08:19:23;5.15;;;3.15;;
4812;SDS011;2420;51.202;8.698;2023-02-28T08:21:49;4.88;;;2.80;;
4812;SDS011;2420;51.202;8.698;2023-02-28T08:24:14;4.13;;;2.70;;
4812;SDS011;2420;51.202;8.698;2023-02-28T08:26:40;4.15;;;2.42;;
4812;SDS011;2420;51.202;8.698;2023-02-28T08:29:05;4.50;;;2.70;;
4812;SDS011;2420;51.202;8.698;2023-02-28T08:31:31;3.65;;;2.65;;
4812;SDS011;2420;51.202;8.698;2023-02-28T08:33:56;3.70;;;2.40;;
4812;SDS011;2420;51.202;8.698;2023-02-28T08:36:24;3.03;;;2.30;;
4812;SDS011;2420;51.202;8.698;2023-02-28T08:38:50;4.85;;;2.40;;
4812;SDS011;2420;51.202;8.698;2023-02-28T08:41:16;3.25;;;2.60;;
4812;SDS011;2420;51.202;8.698;2023-02-28T08:43:42;3.72;;;2.40;;
4812;SDS011;2420;51.202;8.698;2023-02-28T08:46:07;3.53;;;2.35;;
4812;SDS011;2420;51.202;8.698;2023-02-28T08:48:35;3.10;;;2.45;;
4812;SDS011;2420;51.202;8.698;2023-02-28T08:51:23;3.08;;;2.38;;
4812;SDS011;2420;51.202;8.698;2023-02-28T08:53:51;3.30;;;2.40;;
4812;SDS011;2420;51.202;8.698;2023-02-28T08:56:22;3.40;;;2.53;;
4812;SDS011;2420;51.202;8.698;2023-02-28T08:58:49;2.90;;;2.47;;
4812;SDS011;2420;51.202;8.698;2023-02-28T09:01:16;3.38;;;2.45;;
4812;SDS011;2420;51.202;8.698;2023-02-28T09:03:45;3.53;;;2.35;;
4812;SDS011;2420;51.202;8.698;2023-02-28T09:06:12;4.10;;;2.40;;
4812;SDS011;2420;51.202;8.698;2023-02-28T09:08:39;3.45;;;2.60;;
4812;SDS011;2420;51.202;8.698;2023-02-28T09:11:05;3.08;;;2.72;;
4812;SDS011;2420;51.202;8.698;2023-02-28T09:13:31;4.10;;;2.60;;
4812;SDS011;2420;51.202;8.698;2023-02-28T09:15:58;3.90;;;2.70;;
4812;SDS011;2420;51.202;8.698;2023-02-28T09:18:25;3.33;;;2.63;;
4812;SDS011;2420;51.202;8.698;2023-02-28T09:20:51;5.50;;;2.95;;
4812;SDS011;2420;51.202;8.698;2023-02-28T09:23:17;3.83;;;2.78;;
4812;SDS011;2420;51.202;8.698;2023-02-28T09:25:46;4.25;;;2.92;;
4812;SDS011;2420;51.202;8.698;2023-02-28T09:28:14;6.03;;;2.78;;
4812;SDS011;2420;51.202;8.698;2023-02-28T09:30:46;3.53;;;2.60;;
4812;SDS011;2420;51.202;8.698;2023-02-28T09:33:13;3.15;;;2.42;;
4812;SDS011;2420;51.202;8.698;2023-02-28T09:35:39;3.88;;;2.65;;
4812;SDS011;2420;51.202;8.698;2023-02-28T09:38:05;4.30;;;3.13;;
4812;SDS011;2420;51.202;8.698;2023-02-28T09:40:34;4.38;;;2.85;;
4812;SDS011;2420;51.202;8.698;2023-02-28T09:43:02;4.38;;;2.88;;
4812;SDS011;2420;51.202;8.698;2023-02-28T09:45:35;4.15;;;2.72;;
4812;SDS011;2420;51.202;8.698;2023-02-28T09:48:50;5.18;;;3.13;;
4812;SDS011;2420;51.202;8.698;2023-02-28T09:50:55;5.97;;;3.60;;
4812;SDS011;2420;51.202;8.698;2023-02-28T09:53:28;5.95;;;2.83;;
4812;SDS011;2420;51.202;8.698;2023-02-28T09:56:01;5.25;;;3.50;;
4812;SDS011;2420;51.202;8.698;2023-02-28T09:58:42;4.53;;;2.97;;
4812;SDS011;2420;51.202;8.698;2023-02-28T10:01:19;4.45;;;2.90;;
4812;SDS011;2420;51.202;8.698;2023-02-28T10:04:00;4.45;;;3.10;;
4812;SDS011;2420;51.202;8.698;2023-02-28T10:06:35;4.82;;;3.38;;
4812;SDS011;2420;51.202;8.698;2023-02-28T10:09:15;5.40;;;3.20;;
4812;SDS011;2420;51.202;8.698;2023-02-28T10:11:53;5.32;;;3.08;;
4812;SDS011;2420;51.202;8.698;2023-02-28T10:14:26;6.15;;;3.70;;
4812;SDS011;2420;51.202;8.698;2023-02-28T10:17:02;6.10;;;4.00;;
4812;SDS011;2420;51.202;8.698;2023-02-28T10:22:32;3.55;;;2.60;;
4812;SDS011;2420;51.202;8.698;2023-02-28T10:25:01;5.10;;;3.03;;
4812;SDS011;2420;51.202;8.698;2023-02-28T10:27:41;5.70;;;2.60;;
4812;SDS011;2420;51.202;8.698;2023-02-28T10:30:09;4.78;;;3.08;;
4812;SDS011;2420;51.202;8.698;2023-02-28T10:32:36;3.72;;;3.00;;
4812;SDS011;2420;51.202;8.698;2023-02-28T10:37:44;5.00;;;3.20;;
4812;SDS011;2420;51.202;8.698;2023-02-28T10:42:54;4.63;;;3.30;;
4812;SDS011;2420;51.202;8.698;2023-02-28T10:45:21;6.03;;;3.90;;
4812;SDS011;2420;51.202;8.698;2023-02-28T10:47:52;5.32;;;3.10;;
4812;SDS011;2420;51.202;8.698;2023-02-28T10:50:28;5.03;;;3.50;;
4812;SDS011;2420;51.202;8.698;2023-02-28T10:55:41;5.45;;;2.95;;
4812;SDS011;2420;51.202;8.698;2023-02-28T10:58:26;6.32;;;3.85;;
4812;SDS011;2420;51.202;8.698;2023-02-28T11:00:54;4.80;;;3.35;;
4812;SDS011;2420;51.202;8.698;2023-02-28T11:03:34;7.95;;;3.75;;
4812;SDS011;2420;51.202;8.698;2023-02-28T11:06:07;5.07;;;3.22;;
4812;SDS011;2420;51.202;8.698;2023-02-28T11:08:43;6.05;;;3.30;;
4812;SDS011;2420;51.202;8.698;2023-02-28T11:11:14;5.20;;;3.20;;
4812;SDS011;2420;51.202;8.698;2023-02-28T11:13:41;5.57;;;3.35;;
4812;SDS011;2420;51.202;8.698;2023-02-28T11:16:09;6.70;;;3.55;;
4812;SDS011;2420;51.202;8.698;2023-02-28T11:18:50;5.55;;;3.50;;
4812;SDS011;2420;51.202;8.698;2023-02-28T11:21:28;5.05;;;3.45;;
4812;SDS011;2420;51.202;8.698;2023-02-28T11:24:05;5.88;;;3.30;;
4812;SDS011;2420;51.202;8.698;2023-02-28T11:26:47;5.20;;;3.22;;
4812;SDS011;2420;51.202;8.698;2023-02-28T11:32:00;4.50;;;3.20;;
4812;SDS011;2420;51.202;8.698;2023-02-28T11:34:35;3.95;;;3.00;;
4812;SDS011;2420;51.202;8.698;2023-02-28T11:37:02;5.22;;;3.15;;
4812;SDS011;2420;51.202;8.698;2023-02-28T11:39:30;4.88;;;3.65;;
4812;SDS011;2420;51.202;8.698;2023-02-28T11:45:01;8.75;;;6.55;;
4812;SDS011;2420;51.202;8.698;2023-02-28T11:47:47;4.30;;;3.15;;
4812;SDS011;2420;51.202;8.698;2023-02-28T11:56:19;5.95;;;3.47;;
4812;SDS011;2420;51.202;8.698;2023-02-28T12:01:48;5.15;;;3.20;;
4812;SDS011;2420;51.202;8.698;2023-02-28T12:04:33;4.20;;;3.13;;
4812;SDS011;2420;51.202;8.698;2023-02-28T12:07:21;5.22;;;3.58;;
4812;SDS011;2420;51.202;8.698;2023-02-28T12:10:04;5.38;;;3.67;;
4812;SDS011;2420;51.202;8.698;2023-02-28T12:18:42;5.07;;;3.65;;
4812;SDS011;2420;51.202;8.698;2023-02-28T12:21:25;5.72;;;3.42;;
4812;SDS011;2420;51.202;8.698;2023-02-28T12:24:07;6.75;;;3.95;;
4812;SDS011;2420;51.202;8.698;2023-02-28T12:26:57;7.53;;;4.65;;
4812;SDS011;2420;51.202;8.698;2023-02-28T12:29:32;6.25;;;4.05;;
4812;SDS011;2420;51.202;8.698;2023-02-28T12:32:21;7.20;;;4.07;;
4812;SDS011;2420;51.202;8.698;2023-02-28T12:37:39;5.07;;;3.75;;
4812;SDS011;2420;51.202;8.698;2023-02-28T12:42:48;5.20;;;3.67;;
4812;SDS011;2420;51.202;8.698;2023-02-28T12:45:22;5.43;;;3.67;;
4812;SDS011;2420;51.202;8.698;2023-02-28T12:47:57;8.98;;;4.25;;
4812;SDS011;2420;51.202;8.698;2023-02-28T12:50:26;6.47;;;4.28;;
4812;SDS011;2420;51.202;8.698;2023-02-28T12:56:16;5.50;;;4.00;;
4812;SDS011;2420;51.202;8.698;2023-02-28T12:58:59;6.97;;;3.75;;
4812;SDS011;2420;51.202;8.698;2023-02-28T13:01:36;6.90;;;4.00;;
4812;SDS011;2420;51.202;8.698;2023-02-28T13:04:44;6.68;;;4.07;;
4812;SDS011;2420;51.202;8.698;2023-02-28T13:07:47;7.18;;;3.88;;
4812;SDS011;2420;51.202;8.698;2023-02-28T13:10:40;5.95;;;3.40;;
4812;SDS011;2420;51.202;8.698;2023-02-28T13:13:20;5.03;;;3.80;;
4812;SDS011;2420;51.202;8.698;2023-02-28T13:15:59;8.25;;;4.00;;
4812;SDS011;2420;51.202;8.698;2023-02-28T13:18:34;7.05;;;4.00;;
4812;SDS011;2420;51.202;8.698;2023-02-28T13:21:28;6.95;;;4.30;;
4812;SDS011;2420;51.202;8.698;2023-02-28T13:23:59;6.75;;;3.72;;
4812;SDS011;2420;51.202;8.698;2023-02-28T13:29:02;5.70;;;3.75;;
4812;SDS011;2420;51.202;8.698;2023-02-28T13:34:34;7.68;;;4.07;;
4812;SDS011;2420;51.202;8.698;2023-02-28T13:42:35;9.05;;;4.45;;
4812;SDS011;2420;51.202;8.698;2023-02-28T13:47:41;6.93;;;4.18;;
4812;SDS011;2420;51.202;8.698;2023-02-28T13:55:33;6.82;;;4.57;;
4812;SDS011;2420;51.202;8.698;2023-02-28T14:04:13;7.80;;;4.40;;
4812;SDS011;2420;51.202;8.698;2023-02-28T14:06:59;5.78;;;4.22;;
4812;SDS011;2420;51.202;8.698;2023-02-28T14:09:27;7.35;;;4.53;;
4812;SDS011;2420;51.202;8.698;2023-02-28T14:15:02;5.93;;;4.15;;
4812;SDS011;2420;51.202;8.698;2023-02-28T14:17:30;4.70;;;3.80;;
4812;SDS011;2420;51.202;8.698;2023-02-28T14:19:56;7.03;;;4.82;;
4812;SDS011;2420;51.202;8.698;2023-02-28T14:25:32;7.32;;;4.13;;
4812;SDS011;2420;51.202;8.698;2023-02-28T14:31:15;6.75;;;4.10;;
4812;SDS011;2420;51.202;8.698;2023-02-28T14:36:40;5.80;;;4.30;;
4812;SDS011;2420;51.202;8.698;2023-02-28T14:41:42;8.02;;;4.18;;
4812;SDS011;2420;51.202;8.698;2023-02-28T14:44:19;6.15;;;4.40;;
4812;SDS011;2420;51.202;8.698;2023-02-28T14:46:48;5.43;;;3.78;;
4812;SDS011;2420;51.202;8.698;2023-02-28T14:49:17;6.05;;;4.25;;
4812;SDS011;2420;51.202;8.698;2023-02-28T14:52:12;5.97;;;4.30;;
4812;SDS011;2420;51.202;8.698;2023-02-28T14:54:45;6.43;;;4.40;;
4812;SDS011;2420;51.202;8.698;2023-02-28T14:57:24;6.15;;;4.30;;
4812;SDS011;2420;51.202;8.698;2023-02-28T15:00:40;6.45;;;4.30;;
4812;SDS011;2420;51.202;8.698;2023-02-28T15:02:53;7.30;;;4.10;;
4812;SDS011;2420;51.202;8.698;2023-02-28T15:08:00;6.93;;;4.65;;
4812;SDS011;2420;51.202;8.698;2023-02-28T15:10:54;6.68;;;4.05;;
4812;SDS011;2420;51.202;8.698;2023-02-28T15:13:23;6.85;;;4.40;;
4812;SDS011;2420;51.202;8.698;2023-02-28T15:16:00;6.78;;;4.00;;
4812;SDS011;2420;51.202;8.698;2023-02-28T15:18:46;6.47;;;4.78;;
4812;SDS011;2420;51.202;8.698;2023-02-28T15:21:14;7.15;;;4.70;;
4812;SDS011;2420;51.202;8.698;2023-02-28T15:23:45;8.90;;;4.70;;
4812;SDS011;2420;51.202;8.698;2023-02-28T15:26:19;7.32;;;5.00;;
4812;SDS011;2420;51.202;8.698;2023-02-28T15:28:48;8.32;;;4.60;;
4812;SDS011;2420;51.202;8.698;2023-02-28T15:31:19;6.63;;;4.57;;
4812;SDS011;2420;51.202;8.698;2023-02-28T15:33:54;6.70;;;4.68;;
4812;SDS011;2420;51.202;8.698;2023-02-28T15:36:23;9.07;;;4.90;;
4812;SDS011;2420;51.202;8.698;2023-02-28T15:38:54;7.32;;;4.82;;
4812;SDS011;2420;51.202;8.698;2023-02-28T15:41:24;6.97;;;4.40;;
4812;SDS011;2420;51.202;8.698;2023-02-28T15:47:03;9.48;;;4.35;;
4812;SDS011;2420;51.202;8.698;2023-02-28T15:49:36;6.63;;;4.53;;
4812;SDS011;2420;51.202;8.698;2023-02-28T15:52:15;7.82;;;4.90;;
4812;SDS011;2420;51.202;8.698;2023-02-28T15:54:42;8.18;;;4.72;;
4812;SDS011;2420;51.202;8.698;2023-02-28T15:57:13;8.05;;;5.00;;
4812;SDS011;2420;51.202;8.698;2023-02-28T15:59:49;11.18;;;5.47;;
4812;SDS011;2420;51.202;8.698;2023-02-28T16:02:20;7.38;;;4.90;;
4812;SDS011;2420;51.202;8.698;2023-02-28T16:07:32;6.95;;;4.78;;
4812;SDS011;2420;51.202;8.698;2023-02-28T16:09:59;9.95;;;5.93;;
4812;SDS011;2420;51.202;8.698;2023-02-28T16:12:26;10.27;;;5.13;;
4812;SDS011;2420;51.202;8.698;2023-02-28T16:14:54;8.20;;;4.82;;
4812;SDS011;2420;51.202;8.698;2023-02-28T16:17:23;6.95;;;4.82;;
4812;SDS011;2420;51.202;8.698;2023-02-28T16:19:51;7.75;;;4.82;;
4812;SDS011;2420;51.202;8.698;2023-02-28T16:22:17;8.57;;;4.78;;
4812;SDS011;2420;51.202;8.698;2023-02-28T16:24:42;10.82;;;6.38;;
4812;SDS011;2420;51.202;8.698;2023-02-28T16:30:09;9.23;;;5.82;;
4812;SDS011;2420;51.202;8.698;2023-02-28T16:32:43;12.18;;;7.72;;
4812;SDS011;2420;51.202;8.698;2023-02-28T16:35:10;9.68;;;5.63;;
4812;SDS011;2420;51.202;8.698;2023-02-28T16:37:36;8.93;;;5.38;;
4812;SDS011;2420;51.202;8.698;2023-02-28T16:40:02;9.27;;;5.25;;
4812;SDS011;2420;51.202;8.698;2023-02-28T16:42:28;8.43;;;4.97;;
4812;SDS011;2420;51.202;8.698;2023-02-28T16:44:55;9.38;;;5.90;;
4812;SDS011;2420;51.202;8.698;2023-02-28T16:47:21;8.95;;;5.63;;
4812;SDS011;2420;51.202;8.698;2023-02-28T16:49:47;10.60;;;5.97;;
4812;SDS011;2420;51.202;8.698;2023-02-28T16:52:13;7.32;;;5.20;;
4812;SDS011;2420;51.202;8.698;2023-02-28T16:54:39;9.57;;;6.68;;
4812;SDS011;2420;51.202;8.698;2023-02-28T16:57:06;9.38;;;6.70;;
4812;SDS011;2420;51.202;8.698;2023-02-28T16:59:46;11.05;;;6.93;;
4812;SDS011;2420;51.202;8.698;2023-02-28T17:02:12;8.57;;;6.20;;
4812;SDS011;2420;51.202;8.698;2023-02-28T17:04:39;9.00;;;5.63;;
4812;SDS011;2420;51.202;8.698;2023-02-28T17:07:07;11.93;;;6.20;;
4812;SDS011;2420;51.202;8.698;2023-02-28T17:09:36;9.27;;;5.55;;
4812;SDS011;2420;51.202;8.698;2023-02-28T17:12:01;9.35;;;5.82;;
4812;SDS011;2420;51.202;8.698;2023-02-28T17:14:27;9.52;;;5.35;;
4812;SDS011;2420;51.202;8.698;2023-02-28T17:16:52;8.88;;;5.68;;
4812;SDS011;2420;51.202;8.698;2023-02-28T17:19:18;8.30;;;5.75;;
4812;SDS011;2420;51.202;8.698;2023-02-28T17:21:43;7.32;;;4.75;;
4812;SDS011;2420;51.202;8.698;2023-02-28T17:24:11;9.27;;;5.60;;
4812;SDS011;2420;51.202;8.698;2023-02-28T17:26:37;7.00;;;4.78;;
4812;SDS011;2420;51.202;8.698;2023-02-28T17:29:05;9.85;;;5.68;;
4812;SDS011;2420;51.202;8.698;2023-02-28T17:31:37;9.73;;;5.97;;
4812;SDS011;2420;51.202;8.698;2023-02-28T17:34:04;9.50;;;5.95;;